createdAt,value
2023-01-13T00:01:55.100Z,99594.80
2023-01-13T00:04:26.080Z,99597.40
2023-01-13T00:06:56.489Z,99599.91
2023-01-13T00:09:27.054Z,99603.48
2023-01-13T00:11:57.815Z,99606.30
2023-01-13T00:14:30.181Z,99607.13
2023-01-13T00:17:00.536Z,99603.77
2023-01-13T00:19:31.254Z,99603.16
2023-01-13T00:22:01.584Z,99607.33
2023-01-13T00:24:32.165Z,99603.36
2023-01-13T00:27:03.045Z,99601.72
2023-01-13T00:29:33.433Z,99595.81
2023-01-13T00:32:03.929Z,99588.95
2023-01-13T00:34:34.644Z,99586.11
2023-01-13T00:37:05.484Z,99577.86
2023-01-13T00:39:35.802Z,99581.36
2023-01-13T00:42:23.797Z,99575.87
2023-01-13T00:44:54.292Z,99574.16
2023-01-13T00:47:24.721Z,99571.02
2023-01-13T00:49:56.229Z,99570.42
2023-01-13T00:52:27.277Z,99564.39
2023-01-13T00:54:57.900Z,99561.58
2023-01-13T00:57:28.271Z,99563.48
2023-01-13T00:59:58.721Z,99565.41
2023-01-13T01:02:29.430Z,99565.58
2023-01-13T01:05:01.048Z,99551.02
2023-01-13T01:07:31.964Z,99536.36
2023-01-13T01:10:02.567Z,99529.02
2023-01-13T01:12:32.965Z,99528.10
2023-01-13T01:15:06.029Z,99533.20
2023-01-13T01:17:36.416Z,99543.04
2023-01-13T01:20:07.911Z,99543.10
2023-01-13T01:22:38.274Z,99543.91
2023-01-13T01:25:10.340Z,99541.49
2023-01-13T01:27:41.125Z,99532.04
2023-01-13T01:30:14.628Z,99531.85
2023-01-13T01:32:44.995Z,99539.17
2023-01-13T01:35:15.404Z,99542.73
2023-01-13T01:37:46.076Z,99541.59
2023-01-13T01:40:16.910Z,99539.40
2023-01-13T01:43:05.164Z,99544.76
2023-01-13T01:45:36.137Z,99546.20
2023-01-13T01:48:08.271Z,99540.49
2023-01-13T01:50:40.716Z,99540.30
2023-01-13T01:53:16.508Z,99540.70
2023-01-13T01:55:47.437Z,99541.45
2023-01-13T01:58:21.233Z,99549.25
2023-01-13T02:00:52.056Z,99546.80
2023-01-13T02:03:23.081Z,99543.19
2023-01-13T02:05:54.643Z,99533.79
2023-01-13T02:08:25.124Z,99534.93
2023-01-13T02:10:56.697Z,99525.66
2023-01-13T02:13:27.758Z,99523.79
2023-01-13T02:16:08.727Z,99533.27
2023-01-13T02:18:55.570Z,99522.53
2023-01-13T02:21:50.006Z,99526.25
2023-01-13T02:24:55.702Z,99518.88
2023-01-13T02:27:53.932Z,99521.38
2023-01-13T02:30:50.967Z,99521.80
2023-01-13T02:33:33.299Z,99524.34
2023-01-13T02:36:10.892Z,99531.64
2023-01-13T02:38:50.939Z,99533.79
2023-01-13T02:41:45.678Z,99532.02
2023-01-13T02:44:22.246Z,99530.91
2023-01-13T02:46:58.715Z,99530.66
2023-01-13T02:49:35.569Z,99536.40
2023-01-13T02:52:12.622Z,99541.62
2023-01-13T02:54:48.923Z,99543.70
2023-01-13T02:57:21.677Z,99542.91
2023-01-13T02:59:54.172Z,99546.19
2023-01-13T03:02:26.424Z,99545.42
2023-01-13T03:04:59.799Z,99539.29
2023-01-13T03:07:53.402Z,99531.02
2023-01-13T03:10:33.252Z,99533.85
2023-01-13T03:13:13.694Z,99539.38
2023-01-13T03:15:53.841Z,99530.09
2023-01-13T03:18:37.059Z,99542.51
2023-01-13T03:21:14.738Z,99554.05
2023-01-13T03:23:51.964Z,99565.04
2023-01-13T03:26:30.666Z,99572.50
2023-01-13T03:29:08.280Z,99576.48
2023-01-13T03:31:45.264Z,99578.29
2023-01-13T03:34:18.543Z,99580.35
2023-01-13T03:36:54.176Z,99567.50
2023-01-13T03:39:30.925Z,99570.52
2023-01-13T03:42:06.714Z,99568.32
2023-01-13T03:44:43.793Z,99572.60
2023-01-13T03:47:21.589Z,99568.27
2023-01-13T03:49:58.195Z,99562.23
2023-01-13T03:52:33.462Z,99565.45
2023-01-13T03:55:08.865Z,99558.11
2023-01-13T03:57:43.992Z,99567.73
2023-01-13T04:00:16.961Z,99571.11
2023-01-13T04:02:54.423Z,99560.17
2023-01-13T04:05:26.009Z,99554.46
2023-01-13T04:08:02.601Z,99539.52
2023-01-13T04:10:36.081Z,99549.51
2023-01-13T04:13:12.967Z,99552.67
2023-01-13T04:15:46.074Z,99561.12
2023-01-13T04:18:19.086Z,99568.32
2023-01-13T04:20:51.711Z,99570.60
2023-01-13T04:23:23.172Z,99567.83
2023-01-13T04:25:54.538Z,99571.05
2023-01-13T04:28:26.174Z,99554.27
2023-01-13T04:30:56.552Z,99546.47
2023-01-13T04:33:27.365Z,99543.98
2023-01-13T04:35:58.073Z,99539.45
2023-01-13T04:38:28.424Z,99544.81
2023-01-13T04:40:58.992Z,99546.83
2023-01-13T04:43:29.991Z,99551.96
2023-01-13T04:46:00.772Z,99555.20
2023-01-13T04:48:31.536Z,99555.88
2023-01-13T04:51:02.022Z,99566.79
2023-01-13T04:53:32.584Z,99568.38
2023-01-13T04:56:03.014Z,99561.30
2023-01-13T04:58:33.751Z,99560.66
2023-01-13T05:01:04.165Z,99559.78
2023-01-13T05:03:34.910Z,99563.84
2023-01-13T05:06:05.510Z,99569.88
2023-01-13T05:08:36.185Z,99576.11
2023-01-13T05:11:26.695Z,99576.15
2023-01-13T05:14:14.549Z,99583.56
2023-01-13T05:17:01.754Z,99581.20
2023-01-13T05:19:34.173Z,99578.02
2023-01-13T05:22:22.761Z,99578.87
2023-01-13T05:25:11.223Z,99584.25
2023-01-13T05:27:41.583Z,99588.59
2023-01-13T05:30:13.664Z,99594.73
2023-01-13T05:32:43.992Z,99590.22
2023-01-13T05:35:15.997Z,99584.14
2023-01-13T05:37:48.082Z,99575.88
2023-01-13T05:40:38.104Z,99574.54
2023-01-13T05:43:24.657Z,99569.58
2023-01-13T05:45:59.240Z,99572.95
2023-01-13T05:48:31.457Z,99573.36
2023-01-13T05:51:02.432Z,99576.21
2023-01-13T05:53:32.846Z,99583.32
2023-01-13T05:56:05.331Z,99583.02
2023-01-13T05:58:36.105Z,99583.74
2023-01-13T06:01:08.582Z,99581.88
2023-01-13T06:03:39.428Z,99575.23
2023-01-13T06:06:10.191Z,99572.81
2023-01-13T06:08:40.882Z,99575.56
2023-01-13T06:11:11.758Z,99580.31
2023-01-13T06:13:42.468Z,99578.95
2023-01-13T06:16:12.914Z,99575.45
2023-01-13T06:18:43.240Z,99577.75
2023-01-13T06:21:13.888Z,99575.79
2023-01-13T06:23:44.888Z,99577.15
2023-01-13T06:26:18.618Z,99577.71
2023-01-13T06:28:49.952Z,99575.85
2023-01-13T06:31:21.008Z,99577.08
2023-01-13T06:33:56.761Z,99574.71
2023-01-13T06:36:32.273Z,99572.20
2023-01-13T06:39:05.087Z,99569.85
2023-01-13T06:41:53.469Z,99576.02
2023-01-13T06:44:25.316Z,99578.21
2023-01-13T06:46:55.699Z,99581.05
2023-01-13T06:49:26.234Z,99589.42
2023-01-13T06:51:56.873Z,99584.87
2023-01-13T06:54:27.934Z,99585.69
2023-01-13T06:56:58.615Z,99588.07
2023-01-13T06:59:29.031Z,99588.41
2023-01-13T07:01:59.929Z,99595.19
2023-01-13T07:04:30.907Z,99594.39
2023-01-13T07:07:01.581Z,99595.27
2023-01-13T07:09:32.306Z,99591.52
2023-01-13T07:12:02.684Z,99586.45
2023-01-13T07:14:50.532Z,99582.33
2023-01-13T07:17:25.503Z,99580.53
2023-01-13T07:19:55.926Z,99584.09
2023-01-13T07:22:26.566Z,99586.15
2023-01-13T07:24:58.036Z,99591.10
2023-01-13T07:27:28.357Z,99589.80
2023-01-13T07:29:58.671Z,99594.01
2023-01-13T07:32:29.326Z,99590.33
2023-01-13T07:35:04.853Z,99593.30
2023-01-13T07:37:37.985Z,99591.45
2023-01-13T07:40:10.757Z,99589.33
2023-01-13T07:42:58.597Z,99584.52
2023-01-13T07:45:29.010Z,99587.09
2023-01-13T07:47:59.459Z,99590.33
2023-01-13T07:50:30.097Z,99579.88
2023-01-13T07:53:01.847Z,99577.87
2023-01-13T07:55:32.541Z,99582.45
2023-01-13T07:58:03.834Z,99587.23
2023-01-13T08:00:34.503Z,99588.11
2023-01-13T08:03:05.016Z,99594.13
2023-01-13T08:05:37.156Z,99600.45
2023-01-13T08:08:08.257Z,99602.86
2023-01-13T08:10:38.659Z,99604.23
2023-01-13T08:13:19.961Z,99603.58
2023-01-13T08:15:52.112Z,99605.96
2023-01-13T08:18:24.060Z,99601.94
2023-01-13T08:20:55.023Z,99603.27
2023-01-13T08:23:25.857Z,99606.58
2023-01-13T08:25:56.250Z,99612.37
2023-01-13T08:28:27.091Z,99616.59
2023-01-13T08:30:59.620Z,99622.23
2023-01-13T08:33:30.662Z,99625.94
2023-01-13T08:36:03.659Z,99625.20
2023-01-13T08:38:35.365Z,99627.16
2023-01-13T08:41:11.464Z,99630.27
2023-01-13T08:43:42.092Z,99634.52
2023-01-13T08:46:13.077Z,99632.58
2023-01-13T08:48:43.454Z,99643.31
2023-01-13T08:51:14.172Z,99646.52
2023-01-13T08:53:44.528Z,99650.62
2023-01-13T08:56:16.923Z,99647.88
2023-01-13T08:58:47.423Z,99647.53
2023-01-13T09:01:21.295Z,99649.36
2023-01-13T09:03:51.989Z,99643.20
2023-01-13T09:06:22.964Z,99645.08
2023-01-13T09:08:53.299Z,99651.11
2023-01-13T09:11:52.742Z,99646.66
2023-01-13T09:14:24.969Z,99643.89
2023-01-13T09:16:55.697Z,99641.79
2023-01-13T09:19:26.967Z,99640.43
2023-01-13T09:21:58.276Z,99642.20
2023-01-13T09:24:29.500Z,99647.34
2023-01-13T09:27:00.462Z,99647.31
2023-01-13T09:29:31.183Z,99647.57
2023-01-13T09:32:01.596Z,99649.00
2023-01-13T09:34:50.147Z,99656.88
2023-01-13T09:37:20.785Z,99664.79
2023-01-13T09:39:51.092Z,99670.94
2023-01-13T09:42:45.981Z,99675.41
2023-01-13T09:45:20.849Z,99680.89
2023-01-13T09:47:58.592Z,99683.05
2023-01-13T09:50:35.177Z,99678.31
2023-01-13T09:53:11.191Z,99676.80
2023-01-13T09:55:41.750Z,99675.73
2023-01-13T09:58:16.694Z,99673.41
2023-01-13T10:00:53.376Z,99672.69
2023-01-13T10:03:27.282Z,99668.84
2023-01-13T10:06:04.663Z,99669.32
2023-01-13T10:08:38.757Z,99676.42
2023-01-13T10:11:35.829Z,99674.65
2023-01-13T10:14:16.807Z,99673.98
2023-01-13T10:16:52.227Z,99674.95
2023-01-13T10:19:27.585Z,99675.17
2023-01-13T10:22:23.074Z,99675.45
2023-01-13T10:25:20.658Z,99672.02
2023-01-13T10:27:51.610Z,99676.19
2023-01-13T10:30:27.481Z,99675.97
2023-01-13T10:32:59.611Z,99686.33
2023-01-13T10:35:52.160Z,99676.92
2023-01-13T10:38:25.053Z,99678.88
2023-01-13T10:40:57.851Z,99675.98
2023-01-13T10:43:29.902Z,99664.92
2023-01-13T10:46:04.420Z,99664.67
2023-01-13T10:48:52.252Z,99666.23
2023-01-13T10:51:23.169Z,99665.11
2023-01-13T10:53:57.353Z,99669.90
2023-01-13T10:56:29.809Z,99670.11
2023-01-13T10:59:24.482Z,99675.48
2023-01-13T11:02:12.979Z,99675.14
2023-01-13T11:05:10.802Z,99672.44
2023-01-13T11:07:41.357Z,99679.19
2023-01-13T11:10:22.184Z,99673.80
2023-01-13T11:13:05.345Z,99672.69
2023-01-13T11:15:44.190Z,99668.41
2023-01-13T11:18:25.796Z,99667.17
2023-01-13T11:20:58.502Z,99667.50
2023-01-13T11:23:35.343Z,99670.17
2023-01-13T11:26:11.516Z,99670.84
2023-01-13T11:28:49.871Z,99668.27
2023-01-13T11:31:26.289Z,99666.73
2023-01-13T11:34:00.757Z,99667.20
2023-01-13T11:36:39.185Z,99666.77
2023-01-13T11:39:20.656Z,99667.95
2023-01-13T11:42:12.181Z,99667.42
2023-01-13T11:44:50.151Z,99678.38
2023-01-13T11:47:25.357Z,99674.34
2023-01-13T11:49:55.783Z,99678.84
2023-01-13T11:52:34.280Z,99671.05
2023-01-13T11:55:30.406Z,99664.90
2023-01-13T11:58:17.110Z,99667.72
2023-01-13T12:01:03.647Z,99667.71
2023-01-13T12:03:39.167Z,99671.61
2023-01-13T12:06:22.683Z,99672.77
2023-01-13T12:09:29.013Z,99670.04
2023-01-13T12:12:20.158Z,99674.05
2023-01-13T12:15:08.870Z,99670.27
2023-01-13T12:17:52.396Z,99666.77
2023-01-13T12:20:40.398Z,99663.21
2023-01-13T12:23:19.052Z,99659.19
2023-01-13T12:25:55.118Z,99666.02
2023-01-13T12:28:29.263Z,99664.90
2023-01-13T12:31:03.580Z,99660.84
2023-01-13T12:33:47.988Z,99660.98
2023-01-13T12:36:23.292Z,99661.71
2023-01-13T12:38:59.334Z,99652.80
2023-01-13T12:42:03.008Z,99658.38
2023-01-13T12:44:33.569Z,99655.73
2023-01-13T12:47:04.316Z,99655.05
2023-01-13T12:49:36.506Z,99652.24
2023-01-13T12:52:20.356Z,99653.73
2023-01-13T12:55:22.417Z,99649.88
2023-01-13T12:58:15.045Z,99650.35
2023-01-13T13:01:01.968Z,99651.71
2023-01-13T13:03:35.627Z,99655.33
2023-01-13T13:06:10.958Z,99654.27
2023-01-13T13:09:03.618Z,99654.44
2023-01-13T13:12:04.437Z,99658.16
2023-01-13T13:15:04.407Z,99659.85
2023-01-13T13:18:01.421Z,99661.78
2023-01-13T13:21:03.623Z,99666.24
2023-01-13T13:24:03.034Z,99659.63
2023-01-13T13:26:39.443Z,99660.70
2023-01-13T13:29:23.683Z,99664.99
2023-01-13T13:32:08.340Z,99657.86
2023-01-13T13:34:47.675Z,99660.66
2023-01-13T13:37:58.747Z,99664.39
2023-01-13T13:40:51.396Z,99671.15
2023-01-13T13:43:40.848Z,99676.23
2023-01-13T13:46:45.236Z,99676.09
2023-01-13T13:49:17.037Z,99681.91
2023-01-13T13:51:55.298Z,99678.34
2023-01-13T13:54:25.896Z,99688.98
2023-01-13T13:56:58.095Z,99695.20
2023-01-13T13:59:30.517Z,99694.23
2023-01-13T14:02:03.711Z,99703.01
2023-01-13T14:04:37.457Z,99710.53
2023-01-13T14:07:20.749Z,99721.48
2023-01-13T14:09:54.631Z,99734.89
2023-01-13T14:12:27.002Z,99734.58
2023-01-13T14:14:59.832Z,99741.73
2023-01-13T14:17:32.026Z,99747.59
2023-01-13T14:20:05.537Z,99752.03
2023-01-13T14:22:36.464Z,99751.44
2023-01-13T14:25:36.623Z,99763.41
2023-01-13T14:28:18.230Z,99768.31
2023-01-13T14:30:49.864Z,99773.96
2023-01-13T14:33:24.060Z,99771.44
2023-01-13T14:36:17.166Z,99777.77
2023-01-13T14:38:50.012Z,99779.89
2023-01-13T14:41:28.368Z,99787.80
2023-01-13T14:44:01.909Z,99793.55
2023-01-13T14:46:41.062Z,99797.45
2023-01-13T14:49:24.328Z,99792.08
2023-01-13T14:52:03.960Z,99793.16
2023-01-13T14:54:48.269Z,99796.69
2023-01-13T14:57:27.399Z,99802.30
2023-01-13T15:00:07.963Z,99807.20
2023-01-13T15:02:43.720Z,99809.38
2023-01-13T15:05:33.657Z,99807.41
2023-01-13T15:08:09.142Z,99813.83
2023-01-13T15:10:48.773Z,99817.55
2023-01-13T15:13:31.991Z,99821.98
2023-01-13T15:16:05.715Z,99826.65
2023-01-13T15:18:40.048Z,99827.77
2023-01-13T15:21:10.878Z,99832.10
2023-01-13T15:23:41.361Z,99834.66
2023-01-13T15:26:22.178Z,99836.85
2023-01-13T15:28:53.290Z,99841.96
2023-01-13T15:31:24.665Z,99849.63
2023-01-13T15:33:55.739Z,99856.59
2023-01-13T15:36:29.326Z,99851.45
2023-01-13T15:39:00.841Z,99861.46
2023-01-13T15:41:48.397Z,99861.17
2023-01-13T15:44:36.531Z,99857.06
2023-01-13T15:47:10.236Z,99864.90
2023-01-13T15:49:43.479Z,99866.75
2023-01-13T15:52:21.377Z,99872.34
2023-01-13T15:54:50.751Z,99879.08
2023-01-13T15:57:25.822Z,99882.39
2023-01-13T15:59:59.336Z,99884.58
2023-01-13T16:02:30.998Z,99886.55
2023-01-13T16:05:01.691Z,99891.79
2023-01-13T16:07:32.113Z,99896.99
2023-01-13T16:10:04.839Z,99897.70
2023-01-13T16:12:35.378Z,99896.30
2023-01-13T16:15:06.848Z,99892.14
2023-01-13T16:17:38.195Z,99898.92
2023-01-13T16:20:15.856Z,99910.96
2023-01-13T16:22:46.374Z,99915.59
2023-01-13T16:25:21.241Z,99917.27
2023-01-13T16:27:52.363Z,99922.54
2023-01-13T16:30:27.848Z,99927.91
2023-01-13T16:32:58.596Z,99930.04
2023-01-13T16:35:31.891Z,99925.47
2023-01-13T16:38:02.873Z,99926.81
2023-01-13T16:40:36.445Z,99928.91
2023-01-13T16:43:07.125Z,99936.23
2023-01-13T16:45:37.889Z,99938.67
2023-01-13T16:48:16.910Z,99942.23
2023-01-13T16:50:47.595Z,99940.80
2023-01-13T16:53:18.102Z,99944.80
2023-01-13T16:55:48.508Z,99947.27
2023-01-13T16:58:21.342Z,99953.77
2023-01-13T17:00:52.768Z,99959.12
2023-01-13T17:03:23.655Z,99961.30
2023-01-13T17:05:54.566Z,99963.15
2023-01-13T17:08:25.427Z,99966.98
2023-01-13T17:10:55.898Z,99970.58
2023-01-13T17:13:26.673Z,99972.66
2023-01-13T17:15:57.049Z,99975.27
2023-01-13T17:18:27.546Z,99971.23
2023-01-13T17:20:58.843Z,99974.12
2023-01-13T17:23:31.469Z,99980.31
2023-01-13T17:26:02.181Z,99979.30
2023-01-13T17:28:33.306Z,99984.61
2023-01-13T17:31:04.126Z,99989.02
2023-01-13T17:33:37.135Z,99994.48
2023-01-13T17:36:08.322Z,100002.73
2023-01-13T17:38:38.725Z,100002.67
2023-01-13T17:41:09.287Z,100007.13
2023-01-13T17:43:39.733Z,100009.80
2023-01-13T17:46:16.425Z,100010.93
2023-01-13T17:48:47.387Z,100011.36
2023-01-13T17:51:19.540Z,100009.21
2023-01-13T17:53:50.290Z,100022.36
2023-01-13T17:56:20.985Z,100026.86
2023-01-13T17:58:51.688Z,100032.81
2023-01-13T18:01:26.529Z,100035.78
2023-01-13T18:03:57.088Z,100042.25
2023-01-13T18:06:28.123Z,100045.30
2023-01-13T18:08:59.192Z,100050.45
2023-01-13T18:11:30.261Z,100051.88
2023-01-13T18:14:01.216Z,100048.74
2023-01-13T18:16:33.761Z,100050.66
2023-01-13T18:19:22.346Z,100058.02
2023-01-13T18:22:10.743Z,100070.13
2023-01-13T18:24:59.289Z,100071.33
2023-01-13T18:27:33.533Z,100070.73
2023-01-13T18:30:06.485Z,100070.96
2023-01-13T18:32:37.333Z,100075.61
2023-01-13T18:35:10.737Z,100078.91
2023-01-13T18:37:43.005Z,100084.79
2023-01-13T18:40:15.177Z,100090.23
2023-01-13T18:42:55.287Z,100095.40
2023-01-13T18:45:27.327Z,100096.98
2023-01-13T18:48:00.679Z,100098.71
2023-01-13T18:50:31.394Z,100106.11
2023-01-13T18:53:02.302Z,100115.35
2023-01-13T18:55:32.706Z,100112.67
2023-01-13T18:58:03.075Z,100109.30
2023-01-13T19:00:37.051Z,100118.11
2023-01-13T19:05:38.887Z,100127.61
2023-01-13T19:08:09.926Z,100138.24
2023-01-13T19:10:41.384Z,100138.30
2023-01-13T19:13:13.034Z,100131.17
2023-01-13T19:15:43.731Z,100130.16
2023-01-13T19:18:14.910Z,100133.73
2023-01-13T19:20:45.285Z,100137.58
2023-01-13T19:23:16.371Z,100144.73
2023-01-13T19:25:47.075Z,100148.47
2023-01-13T19:28:17.815Z,100146.06
2023-01-13T19:30:48.261Z,100153.95
2023-01-13T19:33:19.334Z,100155.46
2023-01-13T19:35:54.777Z,100158.40
2023-01-13T19:38:25.921Z,100162.05
2023-01-13T19:40:58.286Z,100161.45
2023-01-13T19:43:46.613Z,100165.17
2023-01-13T19:46:17.397Z,100164.70
2023-01-13T19:48:48.177Z,100170.81
2023-01-13T19:51:18.521Z,100177.55
2023-01-13T19:53:49.251Z,100183.11
2023-01-13T19:56:19.942Z,100181.55
2023-01-13T19:58:51.599Z,100185.56
2023-01-13T20:01:24.829Z,100191.31
2023-01-13T20:03:55.583Z,100197.24
2023-01-13T20:06:25.894Z,100198.67
2023-01-13T20:08:56.260Z,100197.71
2023-01-13T20:11:31.220Z,100209.27
2023-01-13T20:14:03.162Z,100205.31
2023-01-13T20:16:33.882Z,100210.02
2023-01-13T20:19:04.400Z,100202.14
2023-01-13T20:21:34.993Z,100203.73
2023-01-13T20:24:05.591Z,100204.83
2023-01-13T20:26:37.512Z,100205.91
2023-01-13T20:29:07.935Z,100205.95
2023-01-13T20:31:38.484Z,100201.61
2023-01-13T20:34:09.634Z,100212.58
2023-01-13T20:36:43.224Z,100217.39
2023-01-13T20:39:16.943Z,100222.46
2023-01-13T20:42:20.332Z,100223.36
2023-01-13T20:44:50.648Z,100225.42
2023-01-13T20:47:21.267Z,100224.42
2023-01-13T20:49:52.125Z,100227.98
2023-01-13T20:52:22.591Z,100234.34
2023-01-13T20:54:52.993Z,100236.73
2023-01-13T20:57:23.577Z,100237.52
2023-01-13T20:59:55.354Z,100236.84
2023-01-13T21:02:25.720Z,100238.11
2023-01-13T21:04:56.396Z,100238.98
2023-01-13T21:07:28.155Z,100240.58
2023-01-13T21:09:58.886Z,100241.36
2023-01-13T21:12:46.834Z,100243.30
2023-01-13T21:15:20.177Z,100242.88
2023-01-13T21:18:09.830Z,100245.84
2023-01-13T21:20:41.453Z,100247.09
2023-01-13T21:23:12.200Z,100250.16
2023-01-13T21:25:43.232Z,100256.89
2023-01-13T21:28:16.028Z,100265.08
2023-01-13T21:30:47.256Z,100260.84
2023-01-13T21:33:17.620Z,100257.49
2023-01-13T21:35:48.225Z,100260.52
2023-01-13T21:38:18.952Z,100263.98
2023-01-13T21:40:56.343Z,100273.86
2023-01-13T21:43:44.587Z,100282.83
2023-01-13T21:46:30.149Z,100288.33
2023-01-13T21:49:01.041Z,100295.61
2023-01-13T21:51:32.155Z,100304.54
2023-01-13T21:54:02.582Z,100311.73
2023-01-13T21:56:33.614Z,100323.81
2023-01-13T21:59:04.322Z,100334.69
2023-01-13T22:01:34.803Z,100338.72
2023-01-13T22:04:14.497Z,100334.85
2023-01-13T22:06:44.861Z,100339.42
2023-01-13T22:09:15.210Z,100341.59
2023-01-13T22:11:45.554Z,100333.20
2023-01-13T22:14:16.114Z,100341.35
2023-01-13T22:16:49.567Z,100345.40
2023-01-13T22:19:20.253Z,100345.52
2023-01-13T22:21:51.291Z,100346.27
2023-01-13T22:24:21.622Z,100341.51
2023-01-13T22:26:52.670Z,100340.95
2023-01-13T22:29:22.934Z,100344.70
2023-01-13T22:31:53.630Z,100351.89
2023-01-13T22:34:24.079Z,100354.91
2023-01-13T22:36:54.394Z,100359.63
2023-01-13T22:39:24.731Z,100358.48
2023-01-13T22:41:55.607Z,100362.16
2023-01-13T22:44:26.882Z,100364.65
2023-01-13T22:46:57.222Z,100366.29
2023-01-13T22:49:27.948Z,100370.52
2023-01-13T22:51:58.691Z,100377.83
2023-01-13T22:54:29.356Z,100385.82
2023-01-13T22:56:59.912Z,100388.26
2023-01-13T22:59:31.811Z,100395.56
2023-01-13T23:02:02.941Z,100387.78
2023-01-13T23:04:33.674Z,100392.90
2023-01-13T23:07:04.029Z,100394.70
2023-01-13T23:09:34.489Z,100402.17
2023-01-13T23:12:05.236Z,100405.79
2023-01-13T23:14:35.704Z,100402.25
2023-01-13T23:17:07.061Z,100401.70
2023-01-13T23:19:37.580Z,100407.88
2023-01-13T23:22:07.885Z,100408.27
2023-01-13T23:24:38.860Z,100414.80
2023-01-13T23:27:09.563Z,100417.33
2023-01-13T23:29:40.351Z,100420.46
2023-01-13T23:32:11.325Z,100425.77
2023-01-13T23:34:41.677Z,100428.14
2023-01-13T23:37:12.561Z,100429.88
2023-01-13T23:39:42.851Z,100434.06
2023-01-13T23:42:13.163Z,100433.78
2023-01-13T23:44:43.777Z,100435.36
2023-01-13T23:47:14.428Z,100432.92
2023-01-13T23:49:44.744Z,100438.39
2023-01-13T23:52:15.093Z,100450.01
2023-01-13T23:54:45.713Z,100448.94
2023-01-13T23:57:16.366Z,100449.51
2023-01-13T23:59:46.842Z,100450.51
